createdAt,value
2023-03-31T00:00:54.243Z,87.00
2023-03-31T00:03:25.087Z,86.40
2023-03-31T00:06:00.864Z,87.20
2023-03-31T00:08:35.659Z,85.70
2023-03-31T00:11:07.425Z,87.20
2023-03-31T00:13:36.070Z,87.40
2023-03-31T00:16:08.176Z,87.80
2023-03-31T00:18:36.527Z,87.60
2023-03-31T00:21:24.943Z,87.90
2023-03-31T00:24:00.215Z,87.00
2023-03-31T00:26:28.029Z,86.70
2023-03-31T00:28:55.548Z,87.90
2023-03-31T00:31:23.848Z,87.80
2023-03-31T00:33:51.092Z,87.90
2023-03-31T00:36:21.484Z,87.70
2023-03-31T00:38:49.133Z,87.90
2023-03-31T00:41:16.665Z,87.80
2023-03-31T00:44:24.546Z,87.90
2023-03-31T00:47:18.018Z,83.90
2023-03-31T00:49:57.056Z,84.20
2023-03-31T00:52:32.406Z,87.70
2023-03-31T00:55:08.994Z,87.70
2023-03-31T00:57:41.373Z,87.60
2023-03-31T01:00:15.574Z,87.50
2023-03-31T01:02:52.346Z,87.60
2023-03-31T01:05:24.384Z,87.90
2023-03-31T01:07:53.725Z,88.20
2023-03-31T01:10:22.583Z,88.30
2023-03-31T01:12:55.244Z,88.30
2023-03-31T01:15:23.181Z,87.60
2023-03-31T01:17:55.642Z,88.40
2023-03-31T01:20:56.415Z,88.40
2023-03-31T01:23:56.549Z,87.60
2023-03-31T01:27:06.960Z,85.10
2023-03-31T01:30:11.481Z,86.20
2023-03-31T01:33:21.326Z,83.90
2023-03-31T01:36:15.790Z,86.60
2023-03-31T01:39:29.502Z,84.10
2023-03-31T01:42:14.589Z,85.40
2023-03-31T01:45:01.272Z,85.60
2023-03-31T01:47:40.262Z,86.40
2023-03-31T01:50:31.219Z,87.30
2023-03-31T01:53:25.178Z,86.20
2023-03-31T01:56:40.965Z,84.70
2023-03-31T01:59:39.577Z,84.90
2023-03-31T02:02:22.316Z,88.00
2023-03-31T02:04:57.114Z,85.10
2023-03-31T02:07:35.927Z,87.70
2023-03-31T02:10:09.320Z,87.50
2023-03-31T02:12:39.802Z,87.90
2023-03-31T02:15:16.061Z,88.20
2023-03-31T02:17:47.397Z,87.30
2023-03-31T02:20:19.296Z,88.30
2023-03-31T02:22:52.610Z,87.90
2023-03-31T02:25:27.511Z,87.40
2023-03-31T02:28:01.891Z,87.40
2023-03-31T02:31:22.608Z,87.50
2023-03-31T02:33:49.900Z,87.30
2023-03-31T02:36:18.375Z,88.20
2023-03-31T02:39:19.741Z,88.20
2023-03-31T02:41:46.819Z,83.10
2023-03-31T02:44:14.687Z,88.20
2023-03-31T02:46:41.650Z,88.30
2023-03-31T02:49:11.354Z,88.30
2023-03-31T02:52:17.291Z,88.20
2023-03-31T02:55:20.917Z,85.60
2023-03-31T02:58:27.312Z,83.90
2023-03-31T03:01:20.367Z,83.60
2023-03-31T03:03:59.246Z,85.10
2023-03-31T03:07:03.186Z,87.10
2023-03-31T03:10:09.992Z,84.40
2023-03-31T03:13:04.752Z,85.90
2023-03-31T03:15:40.882Z,84.00
2023-03-31T03:18:08.038Z,87.40
2023-03-31T03:20:35.866Z,88.20
2023-03-31T03:23:03.017Z,88.30
2023-03-31T03:25:30.357Z,88.30
2023-03-31T03:27:57.258Z,88.30
2023-03-31T03:30:24.132Z,88.40
2023-03-31T03:32:51.107Z,88.30
2023-03-31T03:35:18.128Z,88.30
2023-03-31T03:37:45.444Z,88.10
2023-03-31T03:40:12.718Z,87.80
2023-03-31T03:42:39.631Z,87.60
2023-03-31T03:45:07.815Z,87.40
2023-03-31T03:47:34.819Z,87.30
2023-03-31T03:50:02.774Z,87.00
2023-03-31T03:52:29.876Z,86.90
2023-03-31T03:54:56.816Z,86.80
2023-03-31T03:57:23.667Z,86.80
2023-03-31T03:59:50.533Z,86.90
2023-03-31T04:02:17.402Z,87.10
2023-03-31T04:04:44.334Z,87.40
2023-03-31T04:07:11.177Z,87.70
2023-03-31T04:09:38.000Z,88.10
2023-03-31T04:12:05.180Z,88.30
2023-03-31T04:14:31.986Z,88.70
2023-03-31T04:16:58.830Z,89.00
2023-03-31T04:19:25.908Z,89.20
2023-03-31T04:22:02.636Z,89.40
2023-03-31T04:24:32.809Z,89.50
2023-03-31T04:27:03.201Z,89.60
2023-03-31T04:29:33.619Z,89.50
2023-03-31T04:32:00.981Z,89.80
2023-03-31T04:34:35.054Z,90.00
2023-03-31T04:37:03.236Z,90.10
2023-03-31T04:39:31.273Z,90.20
2023-03-31T04:42:00.097Z,90.30
2023-03-31T04:44:27.792Z,90.30
2023-03-31T04:46:55.713Z,90.30
2023-03-31T04:49:22.904Z,90.10
2023-03-31T04:51:50.286Z,90.10
2023-03-31T04:54:17.218Z,90.10
2023-03-31T04:56:44.214Z,90.10
2023-03-31T04:59:11.259Z,90.10
2023-03-31T05:01:38.307Z,90.00
2023-03-31T05:04:05.975Z,89.70
2023-03-31T05:06:33.011Z,89.40
2023-03-31T05:09:00.029Z,89.10
2023-03-31T05:11:27.453Z,88.80
2023-03-31T05:13:54.728Z,88.70
2023-03-31T05:16:21.675Z,88.90
2023-03-31T05:18:48.528Z,88.70
2023-03-31T05:21:21.497Z,88.60
2023-03-31T05:23:49.128Z,88.00
2023-03-31T05:26:16.621Z,88.70
2023-03-31T05:28:45.591Z,88.90
2023-03-31T05:31:13.216Z,88.70
2023-03-31T05:33:41.993Z,88.70
2023-03-31T05:36:17.004Z,88.80
2023-03-31T05:38:44.044Z,88.30
2023-03-31T05:41:11.811Z,89.20
2023-03-31T05:43:39.854Z,89.80
2023-03-31T05:46:10.551Z,89.20
2023-03-31T05:48:38.049Z,89.20
2023-03-31T05:51:05.527Z,86.30
2023-03-31T05:53:32.436Z,89.40
2023-03-31T05:56:05.549Z,89.90
2023-03-31T05:58:36.249Z,90.00
2023-03-31T06:01:07.978Z,89.90
2023-03-31T06:03:38.032Z,90.00
2023-03-31T06:06:06.285Z,90.30
2023-03-31T06:08:33.186Z,90.50
2023-03-31T06:11:00.436Z,90.20
2023-03-31T06:13:27.335Z,90.20
2023-03-31T06:16:00.018Z,90.60
2023-03-31T06:18:32.994Z,90.70
2023-03-31T06:20:59.825Z,90.80
2023-03-31T06:23:27.234Z,90.80
2023-03-31T06:25:55.044Z,90.60
2023-03-31T06:28:22.014Z,90.50
2023-03-31T06:30:48.858Z,90.40
2023-03-31T06:33:16.489Z,90.50
2023-03-31T06:35:43.404Z,90.40
2023-03-31T06:38:10.848Z,90.40
2023-03-31T06:40:37.752Z,90.60
2023-03-31T06:43:04.681Z,90.60
2023-03-31T06:45:31.540Z,90.60
2023-03-31T06:47:58.720Z,90.50
2023-03-31T06:50:25.579Z,90.60
2023-03-31T06:52:55.093Z,90.70
2023-03-31T06:55:22.138Z,90.70
2023-03-31T06:57:48.962Z,90.70
2023-03-31T07:00:16.610Z,90.70
2023-03-31T07:02:43.558Z,90.90
2023-03-31T07:05:11.087Z,90.80
2023-03-31T07:07:37.965Z,90.70
2023-03-31T07:10:05.539Z,90.60
2023-03-31T07:12:35.684Z,90.20
2023-03-31T07:15:02.500Z,89.50
2023-03-31T07:17:29.476Z,89.50
2023-03-31T07:19:56.337Z,89.20
2023-03-31T07:22:23.280Z,88.80
2023-03-31T07:24:50.101Z,88.80
2023-03-31T07:27:16.914Z,88.80
2023-03-31T07:29:43.733Z,88.80
2023-03-31T07:32:10.691Z,88.70
2023-03-31T07:34:37.861Z,88.40
2023-03-31T07:37:05.293Z,88.60
2023-03-31T07:39:32.219Z,89.20
2023-03-31T07:41:59.177Z,89.60
2023-03-31T07:44:26.219Z,89.90
2023-03-31T07:46:53.004Z,89.70
2023-03-31T07:49:19.876Z,89.90
2023-03-31T07:51:46.688Z,90.10
2023-03-31T07:54:13.476Z,89.90
2023-03-31T07:56:40.375Z,89.70
2023-03-31T07:59:07.158Z,89.50
2023-03-31T08:01:34.766Z,89.50
2023-03-31T08:04:02.177Z,89.50
2023-03-31T08:06:30.001Z,89.70
2023-03-31T08:08:57.871Z,90.00
2023-03-31T08:11:26.339Z,90.20
2023-03-31T08:13:53.488Z,90.50
2023-03-31T08:16:20.601Z,90.80
2023-03-31T08:18:47.694Z,90.70
2023-03-31T08:21:14.595Z,90.60
2023-03-31T08:23:41.450Z,90.30
2023-03-31T08:26:10.953Z,90.10
2023-03-31T08:28:37.943Z,90.00
2023-03-31T08:31:10.472Z,89.80
2023-03-31T08:33:37.877Z,89.60
2023-03-31T08:36:09.094Z,90.10
2023-03-31T08:38:41.967Z,90.20
2023-03-31T08:41:31.053Z,90.10
2023-03-31T08:44:01.798Z,89.80
2023-03-31T08:46:31.525Z,89.90
2023-03-31T08:49:01.037Z,87.90
2023-03-31T08:51:53.413Z,89.60
2023-03-31T08:54:36.054Z,88.20
2023-03-31T08:57:10.778Z,88.70
2023-03-31T08:59:39.072Z,89.00
2023-03-31T09:02:56.896Z,89.10
2023-03-31T09:05:52.768Z,88.80
2023-03-31T09:08:35.655Z,89.30
2023-03-31T09:11:28.127Z,89.60
2023-03-31T09:15:01.179Z,89.40
2023-03-31T09:17:51.433Z,88.70
2023-03-31T09:20:38.469Z,90.40
2023-03-31T09:23:36.599Z,90.40
2023-03-31T09:26:05.353Z,89.00
2023-03-31T09:28:39.738Z,91.10
2023-03-31T09:31:17.788Z,91.30
2023-03-31T09:33:51.551Z,91.70
2023-03-31T09:36:24.681Z,92.90
2023-03-31T09:38:52.149Z,94.90
2023-03-31T09:41:19.728Z,96.00
2023-03-31T09:43:48.012Z,96.00
2023-03-31T09:46:35.253Z,94.00
2023-03-31T09:49:11.654Z,90.60
2023-03-31T09:51:46.116Z,89.80
2023-03-31T09:54:29.359Z,88.60
2023-03-31T09:56:56.609Z,86.10
2023-03-31T09:59:35.252Z,87.50
2023-03-31T10:02:38.566Z,83.00
2023-03-31T10:05:08.646Z,82.60
2023-03-31T10:07:35.920Z,87.50
2023-03-31T10:10:03.652Z,88.10
2023-03-31T10:12:32.014Z,87.90
2023-03-31T10:15:26.030Z,87.10
2023-03-31T10:17:55.387Z,82.70
2023-03-31T10:20:37.703Z,86.70
2023-03-31T10:23:17.763Z,85.00
2023-03-31T10:25:47.367Z,88.30
2023-03-31T10:28:20.354Z,89.70
2023-03-31T10:30:54.567Z,87.90
2023-03-31T10:33:28.559Z,86.40
2023-03-31T10:36:14.810Z,85.90
2023-03-31T10:38:46.802Z,83.70
2023-03-31T10:41:24.909Z,88.60
2023-03-31T10:43:58.403Z,90.50
2023-03-31T10:46:47.210Z,90.70
2023-03-31T10:49:23.131Z,85.80
2023-03-31T10:52:03.725Z,86.80
2023-03-31T10:54:31.202Z,85.60
2023-03-31T10:57:05.608Z,89.00
2023-03-31T10:59:38.373Z,85.70
2023-03-31T11:02:39.234Z,88.30
2023-03-31T11:05:22.534Z,81.50
2023-03-31T11:08:21.386Z,85.40
2023-03-31T11:11:29.081Z,80.40
2023-03-31T11:14:07.716Z,78.90
2023-03-31T11:17:16.576Z,83.90
2023-03-31T11:20:07.606Z,78.90
2023-03-31T11:23:03.914Z,78.80
2023-03-31T11:26:02.620Z,76.60
2023-03-31T11:28:50.526Z,76.70
2023-03-31T11:31:38.722Z,78.10
2023-03-31T11:34:29.702Z,77.20
2023-03-31T11:37:17.126Z,77.00
2023-03-31T11:39:55.911Z,77.50
2023-03-31T11:42:47.064Z,76.40
2023-03-31T11:45:43.350Z,75.90
2023-03-31T11:48:26.453Z,77.70
2023-03-31T11:50:54.496Z,79.80
2023-03-31T11:53:31.252Z,83.00
2023-03-31T11:56:02.401Z,84.20
2023-03-31T11:58:37.052Z,86.00
2023-03-31T12:01:10.861Z,85.60
2023-03-31T12:03:53.077Z,86.00
2023-03-31T12:06:26.585Z,87.60
2023-03-31T12:09:08.167Z,88.90
2023-03-31T12:12:18.392Z,90.20
2023-03-31T12:14:55.905Z,88.70
2023-03-31T12:17:27.527Z,90.50
2023-03-31T12:20:01.102Z,91.10
2023-03-31T12:22:41.918Z,91.50
2023-03-31T12:25:23.146Z,90.30
2023-03-31T12:27:51.562Z,89.50
2023-03-31T12:30:36.970Z,91.20
2023-03-31T12:33:12.577Z,89.90
2023-03-31T12:36:04.225Z,90.70
2023-03-31T12:38:55.273Z,90.30
2023-03-31T12:41:44.998Z,89.00
2023-03-31T12:44:38.423Z,89.00
2023-03-31T12:47:13.396Z,89.70
2023-03-31T12:50:10.674Z,90.00
2023-03-31T12:53:28.160Z,85.80
2023-03-31T12:55:59.497Z,83.60
2023-03-31T12:58:33.930Z,87.80
2023-03-31T13:01:15.975Z,89.20
2023-03-31T13:03:46.676Z,87.00
2023-03-31T13:06:28.536Z,89.30
2023-03-31T13:09:11.376Z,86.40
2023-03-31T13:11:44.540Z,90.40
2023-03-31T13:14:21.955Z,89.90
2023-03-31T13:16:53.506Z,86.00
2023-03-31T13:19:36.230Z,87.90
2023-03-31T13:22:06.045Z,82.60
2023-03-31T13:24:34.696Z,82.90
2023-03-31T13:27:50.221Z,80.90
2023-03-31T13:30:40.045Z,73.60
2023-03-31T13:33:27.980Z,77.00
2023-03-31T13:36:17.795Z,79.50
2023-03-31T13:39:12.895Z,80.80
2023-03-31T13:42:00.506Z,81.90
2023-03-31T13:45:19.348Z,84.10
2023-03-31T13:48:27.840Z,83.00
2023-03-31T13:51:21.159Z,82.20
2023-03-31T13:54:10.197Z,90.90
2023-03-31T13:57:24.911Z,90.00
2023-03-31T14:00:37.388Z,88.20
2023-03-31T14:03:50.596Z,94.00
2023-03-31T14:06:29.383Z,91.90
2023-03-31T14:09:10.651Z,94.80
2023-03-31T14:11:37.901Z,89.80
2023-03-31T14:14:04.675Z,89.30
2023-03-31T14:16:39.540Z,83.20
2023-03-31T14:19:24.934Z,78.90
2023-03-31T14:22:02.674Z,76.30
2023-03-31T14:25:13.862Z,76.50
2023-03-31T14:28:05.146Z,72.60
2023-03-31T14:31:02.932Z,73.90
2023-03-31T14:33:46.515Z,76.40
2023-03-31T14:36:39.402Z,76.60
2023-03-31T14:39:11.654Z,78.90
2023-03-31T14:41:40.105Z,78.10
2023-03-31T14:44:12.914Z,80.10
2023-03-31T14:46:39.784Z,79.90
2023-03-31T14:49:28.847Z,79.40
2023-03-31T14:52:06.547Z,76.60
2023-03-31T14:54:38.749Z,75.90
2023-03-31T14:57:06.416Z,75.70
2023-03-31T14:59:35.903Z,76.80
2023-03-31T15:02:05.528Z,77.70
2023-03-31T15:04:44.874Z,78.20
2023-03-31T15:07:13.391Z,77.00
2023-03-31T15:09:49.487Z,79.30
2023-03-31T15:12:20.681Z,80.80
2023-03-31T15:14:52.199Z,88.00
2023-03-31T15:17:30.371Z,90.70
2023-03-31T15:20:04.868Z,87.70
2023-03-31T15:22:31.803Z,90.90
2023-03-31T15:24:58.849Z,90.00
2023-03-31T15:27:41.462Z,88.70
2023-03-31T15:30:17.073Z,81.50
2023-03-31T15:32:44.330Z,85.90
2023-03-31T15:35:30.551Z,87.50
2023-03-31T15:38:00.453Z,81.00
2023-03-31T15:40:36.650Z,86.20
2023-03-31T15:43:24.255Z,82.90
2023-03-31T15:45:54.851Z,81.00
2023-03-31T15:48:38.579Z,85.50
2023-03-31T15:51:24.286Z,80.20
2023-03-31T15:53:53.841Z,79.70
2023-03-31T15:56:44.383Z,84.50
2023-03-31T15:59:34.424Z,81.40
2023-03-31T16:02:05.851Z,78.90
2023-03-31T16:04:33.399Z,83.90
2023-03-31T16:07:09.412Z,83.30
2023-03-31T16:09:51.119Z,80.40
2023-03-31T16:12:38.096Z,79.40
2023-03-31T16:15:14.068Z,79.70
2023-03-31T16:17:57.919Z,84.60
2023-03-31T16:20:40.226Z,85.40
2023-03-31T16:23:38.710Z,86.50
2023-03-31T16:26:07.225Z,81.40
2023-03-31T16:28:38.640Z,90.70
2023-03-31T16:31:35.033Z,89.40
2023-03-31T16:34:05.032Z,91.20
2023-03-31T16:36:31.956Z,91.40
2023-03-31T16:39:01.884Z,90.70
2023-03-31T16:41:29.991Z,88.10
2023-03-31T16:43:56.852Z,84.80
2023-03-31T16:46:24.706Z,81.70
2023-03-31T16:48:53.166Z,79.30
2023-03-31T16:51:20.459Z,78.50
2023-03-31T16:53:48.355Z,77.90
2023-03-31T16:56:15.729Z,77.60
2023-03-31T16:58:43.641Z,77.90
2023-03-31T17:01:11.932Z,78.00
2023-03-31T17:03:41.576Z,78.70
2023-03-31T17:06:12.529Z,76.10
2023-03-31T17:08:39.852Z,72.60
2023-03-31T17:11:12.248Z,70.70
2023-03-31T17:13:41.768Z,69.80
2023-03-31T17:16:21.586Z,70.30
2023-03-31T17:18:54.350Z,71.60
2023-03-31T17:21:21.938Z,73.30
2023-03-31T17:23:49.729Z,74.50
2023-03-31T17:26:18.008Z,76.20
2023-03-31T17:28:45.408Z,77.50
2023-03-31T17:31:21.079Z,78.50
2023-03-31T17:33:48.337Z,78.70
2023-03-31T17:36:15.708Z,80.40
2023-03-31T17:38:42.802Z,81.50
2023-03-31T17:41:13.078Z,82.10
2023-03-31T17:43:44.745Z,82.70
2023-03-31T17:46:13.007Z,83.40
2023-03-31T17:48:41.267Z,83.90
2023-03-31T17:51:16.986Z,84.50
2023-03-31T17:53:46.702Z,84.90
2023-03-31T17:56:15.574Z,85.20
2023-03-31T17:58:42.781Z,85.60
2023-03-31T18:01:16.850Z,85.90
2023-03-31T18:03:46.107Z,85.40
2023-03-31T18:06:14.777Z,86.70
2023-03-31T18:08:42.707Z,86.80
2023-03-31T18:11:10.931Z,87.10
2023-03-31T18:13:39.098Z,87.40
2023-03-31T18:16:09.576Z,87.60
2023-03-31T18:18:38.014Z,88.00
2023-03-31T18:21:08.339Z,87.90
2023-03-31T18:23:36.697Z,88.10
2023-03-31T18:26:11.708Z,88.30
2023-03-31T18:28:40.836Z,87.20
2023-03-31T18:31:09.244Z,88.10
2023-03-31T18:33:37.738Z,88.00
2023-03-31T18:36:06.847Z,87.80
2023-03-31T18:38:36.792Z,87.60
2023-03-31T18:41:04.676Z,87.50
2023-03-31T18:43:33.331Z,87.50
2023-03-31T18:46:01.355Z,87.10
2023-03-31T18:48:28.249Z,87.10
2023-03-31T18:50:55.094Z,87.00
2023-03-31T18:53:24.282Z,86.80
2023-03-31T18:55:53.086Z,86.60
2023-03-31T18:58:20.395Z,86.80
2023-03-31T19:00:47.548Z,86.70
2023-03-31T19:03:14.757Z,86.70
2023-03-31T19:05:42.400Z,86.80
2023-03-31T19:08:09.733Z,86.70
2023-03-31T19:10:36.704Z,86.70
2023-03-31T19:13:04.003Z,86.60
2023-03-31T19:15:31.070Z,86.90
2023-03-31T19:17:58.128Z,86.90
2023-03-31T19:20:25.121Z,87.10
2023-03-31T19:22:52.529Z,87.10
2023-03-31T19:25:21.504Z,87.00
2023-03-31T19:27:48.608Z,86.80
2023-03-31T19:30:20.205Z,87.10
2023-03-31T19:32:49.049Z,86.60
2023-03-31T19:35:18.572Z,86.90
2023-03-31T19:37:46.668Z,86.70
2023-03-31T19:40:14.559Z,86.90
2023-03-31T19:42:42.230Z,87.00
2023-03-31T19:45:09.705Z,87.10
2023-03-31T19:47:36.657Z,87.00
2023-03-31T19:50:04.026Z,87.00
2023-03-31T19:52:30.912Z,86.90
2023-03-31T19:54:57.805Z,87.10
2023-03-31T19:57:24.667Z,87.20
2023-03-31T19:59:51.511Z,87.20
2023-03-31T20:02:18.731Z,87.20
2023-03-31T20:04:45.885Z,87.30
2023-03-31T20:07:12.884Z,87.10
2023-03-31T20:09:39.721Z,87.10
2023-03-31T20:12:06.988Z,86.80
2023-03-31T20:14:34.211Z,86.80
2023-03-31T20:17:02.268Z,86.90
2023-03-31T20:19:29.639Z,87.00
2023-03-31T20:21:57.976Z,86.70
2023-03-31T20:24:27.294Z,86.80
2023-03-31T20:26:54.281Z,86.50
2023-03-31T20:29:22.010Z,86.50
2023-03-31T20:31:50.370Z,86.50
2023-03-31T20:34:19.641Z,86.30
2023-03-31T20:36:49.226Z,86.10
2023-03-31T20:39:16.565Z,86.10
2023-03-31T20:41:44.848Z,86.10
2023-03-31T20:44:15.600Z,86.20
2023-03-31T20:46:44.770Z,86.30
2023-03-31T20:49:12.298Z,85.90
2023-03-31T20:51:40.070Z,86.00
2023-03-31T20:54:07.973Z,86.00
2023-03-31T20:56:40.561Z,85.90
2023-03-31T20:59:14.932Z,83.80
2023-03-31T21:01:45.080Z,83.80
2023-03-31T21:04:12.187Z,85.90
2023-03-31T21:06:46.107Z,86.10
2023-03-31T21:09:15.087Z,84.10
2023-03-31T21:11:42.336Z,86.00
2023-03-31T21:14:15.821Z,86.00
2023-03-31T21:16:43.210Z,84.20
2023-03-31T21:19:10.713Z,86.10
2023-03-31T21:21:40.955Z,86.20
2023-03-31T21:24:11.289Z,86.20
2023-03-31T21:26:39.261Z,85.90
2023-03-31T21:29:06.332Z,86.20
2023-03-31T21:31:33.227Z,86.20
2023-03-31T21:34:02.475Z,85.90
2023-03-31T21:36:29.702Z,85.80
2023-03-31T21:38:57.912Z,86.00
2023-03-31T21:41:28.748Z,85.90
2023-03-31T21:43:56.375Z,85.30
2023-03-31T21:46:29.375Z,83.00
2023-03-31T21:48:57.427Z,85.60
2023-03-31T21:51:25.713Z,85.70
2023-03-31T21:53:55.430Z,85.70
2023-03-31T21:56:25.724Z,85.50
2023-03-31T21:58:52.683Z,85.10
2023-03-31T22:01:21.746Z,85.50
2023-03-31T22:03:49.532Z,85.40
2023-03-31T22:06:16.800Z,85.50
2023-03-31T22:08:43.943Z,85.90
2023-03-31T22:11:12.712Z,85.90
2023-03-31T22:13:39.819Z,85.40
2023-03-31T22:16:18.900Z,85.60
2023-03-31T22:18:47.649Z,82.50
2023-03-31T22:21:20.917Z,85.50
2023-03-31T22:23:50.448Z,85.40
2023-03-31T22:26:17.281Z,85.70
2023-03-31T22:28:44.266Z,85.80
2023-03-31T22:31:11.184Z,85.70
2023-03-31T22:33:37.999Z,85.90
2023-03-31T22:36:05.461Z,85.90
2023-03-31T22:38:32.380Z,86.00
2023-03-31T22:40:59.273Z,86.00
2023-03-31T22:43:27.022Z,86.00
2023-03-31T22:45:53.849Z,86.20
2023-03-31T22:48:20.777Z,86.30
2023-03-31T22:50:47.889Z,86.30
2023-03-31T22:53:14.983Z,86.70
2023-03-31T22:55:44.128Z,86.40
2023-03-31T22:58:22.560Z,86.30
2023-03-31T23:00:59.496Z,86.80
2023-03-31T23:03:27.700Z,83.90
2023-03-31T23:05:54.689Z,86.90
2023-03-31T23:08:22.067Z,86.90
2023-03-31T23:10:59.943Z,86.70
2023-03-31T23:13:28.882Z,85.30
2023-03-31T23:15:56.162Z,86.50
2023-03-31T23:18:23.541Z,86.50
2023-03-31T23:20:50.581Z,86.10
2023-03-31T23:23:17.535Z,86.00
2023-03-31T23:25:44.362Z,86.00
2023-03-31T23:28:11.166Z,86.00
2023-03-31T23:30:38.069Z,86.00
2023-03-31T23:33:04.981Z,86.20
2023-03-31T23:35:31.992Z,86.20
2023-03-31T23:37:59.080Z,86.10
2023-03-31T23:40:26.033Z,86.10
2023-03-31T23:42:52.834Z,86.20
2023-03-31T23:45:19.675Z,86.10
2023-03-31T23:47:46.564Z,86.10
2023-03-31T23:50:13.467Z,85.90
2023-03-31T23:52:40.603Z,85.70
2023-03-31T23:55:07.824Z,85.50
2023-03-31T23:57:34.754Z,85.50
